Terminal Aerodrome Forecast
Issued by NWS

Home | Current Version | Previous Version | Text Only | Print | Product List | Glossary On
Versions: 1 2 3 4 5 6 7 8 9 10 11 12 13 14 15 16 17 18 19 20 21
000
FTUS42 KGSP 271120
TAFHKY
TAF
KHKY 271120Z 2712/2812 20006KT P6SM SCT060 BKN250
     FM271600 21010G18KT P6SM VCSH BKN040
      TEMPO 2718/2722 4SM TSRA OVC025CB
     FM272200 20005KT P6SM VCSH OVC015
     FM280100 21005KT P6SM BKN040
     FM280500 VRB02KT 5SM BR SCT030=

USA.gov is the U.S. government's official web portal to all federal, state and local government web resources and services.